sensor_id;sensor_type;location;lat;lon;timestamp;temperature;humidity
40738;DHT22;54759;48.094;-1.628;2023-03-02T00:01:13;20.40;29.50
40738;DHT22;54759;48.094;-1.628;2023-03-02T00:04:15;20.10;31.50
40738;DHT22;54759;48.094;-1.628;2023-03-02T00:07:19;20.20;31.30
40738;DHT22;54759;48.094;-1.628;2023-03-02T00:10:22;19.80;31.30
40738;DHT22;54759;48.094;-1.628;2023-03-02T00:13:23;19.80;31.30
40738;DHT22;54759;48.094;-1.628;2023-03-02T00:16:25;20.00;31.50
40738;DHT22;54759;48.094;-1.628;2023-03-02T00:19:26;20.10;31.40
40738;DHT22;54759;48.094;-1.628;2023-03-02T00:22:28;19.80;31.30
40738;DHT22;54759;48.094;-1.628;2023-03-02T00:34:38;20.20;29.60
40738;DHT22;54759;48.094;-1.628;2023-03-02T00:37:40;19.80;31.50
40738;DHT22;54759;48.094;-1.628;2023-03-02T00:40:43;20.40;31.80
40738;DHT22;54759;48.094;-1.628;2023-03-02T00:43:45;20.20;31.60
40738;DHT22;54759;48.094;-1.628;2023-03-02T00:46:46;19.90;31.60
40738;DHT22;54759;48.094;-1.628;2023-03-02T00:49:47;20.10;31.60
40738;DHT22;54759;48.094;-1.628;2023-03-02T00:52:49;20.20;31.70
40738;DHT22;54759;48.094;-1.628;2023-03-02T00:55:51;19.90;31.50
40738;DHT22;54759;48.094;-1.628;2023-03-02T00:58:53;19.70;31.30
40738;DHT22;54759;48.094;-1.628;2023-03-02T01:01:55;20.10;31.60
40738;DHT22;54759;48.094;-1.628;2023-03-02T01:04:59;20.10;31.50
40738;DHT22;54759;48.094;-1.628;2023-03-02T01:08:01;19.70;31.50
40738;DHT22;54759;48.094;-1.628;2023-03-02T01:11:03;20.30;31.60
40738;DHT22;54759;48.094;-1.628;2023-03-02T01:14:12;19.70;31.30
40738;DHT22;54759;48.094;-1.628;2023-03-02T01:17:13;19.80;31.50
40738;DHT22;54759;48.094;-1.628;2023-03-02T01:20:15;19.80;31.30
40738;DHT22;54759;48.094;-1.628;2023-03-02T01:23:17;19.80;31.50
40738;DHT22;54759;48.094;-1.628;2023-03-02T01:26:19;20.20;31.80
40738;DHT22;54759;48.094;-1.628;2023-03-02T01:29:21;19.80;31.50
40738;DHT22;54759;48.094;-1.628;2023-03-02T01:32:22;19.80;31.50
40738;DHT22;54759;48.094;-1.628;2023-03-02T01:35:23;20.00;31.70
40738;DHT22;54759;48.094;-1.628;2023-03-02T01:38:26;20.00;31.60
40738;DHT22;54759;48.094;-1.628;2023-03-02T01:41:27;20.10;31.60
40738;DHT22;54759;48.094;-1.628;2023-03-02T01:44:32;20.20;31.60
40738;DHT22;54759;48.094;-1.628;2023-03-02T01:47:34;19.70;31.30
40738;DHT22;54759;48.094;-1.628;2023-03-02T01:50:42;20.00;31.50
40738;DHT22;54759;48.094;-1.628;2023-03-02T01:53:46;19.90;31.50
40738;DHT22;54759;48.094;-1.628;2023-03-02T01:56:50;20.00;31.50
40738;DHT22;54759;48.094;-1.628;2023-03-02T01:59:53;20.00;31.50
40738;DHT22;54759;48.094;-1.628;2023-03-02T02:02:57;20.00;31.50
40738;DHT22;54759;48.094;-1.628;2023-03-02T02:06:10;19.60;31.40
40738;DHT22;54759;48.094;-1.628;2023-03-02T02:09:18;20.00;31.50
40738;DHT22;54759;48.094;-1.628;2023-03-02T02:12:21;20.50;31.90
40738;DHT22;54759;48.094;-1.628;2023-03-02T02:15:23;19.80;31.40
40738;DHT22;54759;48.094;-1.628;2023-03-02T02:18:24;19.70;31.50
40738;DHT22;54759;48.094;-1.628;2023-03-02T02:21:26;20.00;31.50
40738;DHT22;54759;48.094;-1.628;2023-03-02T02:24:29;19.50;31.30
40738;DHT22;54759;48.094;-1.628;2023-03-02T02:27:35;20.10;31.70
40738;DHT22;54759;48.094;-1.628;2023-03-02T02:30:36;19.50;31.50
40738;DHT22;54759;48.094;-1.628;2023-03-02T02:33:39;19.50;31.30
40738;DHT22;54759;48.094;-1.628;2023-03-02T02:36:44;19.50;31.30
40738;DHT22;54759;48.094;-1.628;2023-03-02T02:39:49;19.90;31.40
40738;DHT22;54759;48.094;-1.628;2023-03-02T02:42:55;20.00;31.60
40738;DHT22;54759;48.094;-1.628;2023-03-02T02:45:57;20.00;31.80
40738;DHT22;54759;48.094;-1.628;2023-03-02T02:48:59;19.60;31.30
40738;DHT22;54759;48.094;-1.628;2023-03-02T02:52:03;19.60;32.00
40738;DHT22;54759;48.094;-1.628;2023-03-02T02:55:05;19.70;31.40
40738;DHT22;54759;48.094;-1.628;2023-03-02T02:58:12;19.50;31.40
40738;DHT22;54759;48.094;-1.628;2023-03-02T03:01:18;19.50;31.90
40738;DHT22;54759;48.094;-1.628;2023-03-02T03:04:21;19.70;31.40
40738;DHT22;54759;48.094;-1.628;2023-03-02T03:07:24;20.10;31.60
40738;DHT22;54759;48.094;-1.628;2023-03-02T03:10:27;19.90;31.70
40738;DHT22;54759;48.094;-1.628;2023-03-02T03:13:35;20.30;31.70
40738;DHT22;54759;48.094;-1.628;2023-03-02T03:16:38;19.50;31.30
40738;DHT22;54759;48.094;-1.628;2023-03-02T03:19:41;19.60;31.40
40738;DHT22;54759;48.094;-1.628;2023-03-02T03:22:45;19.60;31.40
40738;DHT22;54759;48.094;-1.628;2023-03-02T03:25:48;19.50;31.40
40738;DHT22;54759;48.094;-1.628;2023-03-02T03:28:50;19.50;31.50
40738;DHT22;54759;48.094;-1.628;2023-03-02T03:31:52;19.40;31.30
40738;DHT22;54759;48.094;-1.628;2023-03-02T03:34:55;19.60;31.50
40738;DHT22;54759;48.094;-1.628;2023-03-02T03:38:01;20.00;31.70
40738;DHT22;54759;48.094;-1.628;2023-03-02T03:41:03;20.00;31.80
40738;DHT22;54759;48.094;-1.628;2023-03-02T03:44:05;20.10;31.60
40738;DHT22;54759;48.094;-1.628;2023-03-02T03:47:08;19.80;31.70
40738;DHT22;54759;48.094;-1.628;2023-03-02T03:50:10;19.50;31.50
40738;DHT22;54759;48.094;-1.628;2023-03-02T03:53:12;19.90;31.70
40738;DHT22;54759;48.094;-1.628;2023-03-02T03:56:13;19.60;31.50
40738;DHT22;54759;48.094;-1.628;2023-03-02T03:59:17;19.50;31.60
40738;DHT22;54759;48.094;-1.628;2023-03-02T04:02:23;19.40;31.50
40738;DHT22;54759;48.094;-1.628;2023-03-02T04:05:25;19.90;31.80
40738;DHT22;54759;48.094;-1.628;2023-03-02T04:08:27;20.00;31.80
40738;DHT22;54759;48.094;-1.628;2023-03-02T04:11:30;19.80;31.80
40738;DHT22;54759;48.094;-1.628;2023-03-02T04:14:32;20.10;31.80
40738;DHT22;54759;48.094;-1.628;2023-03-02T04:17:34;19.70;31.60
40738;DHT22;54759;48.094;-1.628;2023-03-02T04:20:38;19.60;31.60
40738;DHT22;54759;48.094;-1.628;2023-03-02T04:23:40;19.40;31.60
40738;DHT22;54759;48.094;-1.628;2023-03-02T04:26:42;19.80;31.60
40738;DHT22;54759;48.094;-1.628;2023-03-02T04:29:45;19.70;31.50
40738;DHT22;54759;48.094;-1.628;2023-03-02T04:32:46;19.40;31.50
40738;DHT22;54759;48.094;-1.628;2023-03-02T04:35:48;19.70;31.60
40738;DHT22;54759;48.094;-1.628;2023-03-02T04:38:50;19.50;31.60
40738;DHT22;54759;48.094;-1.628;2023-03-02T04:41:52;19.80;31.70
40738;DHT22;54759;48.094;-1.628;2023-03-02T04:44:54;19.90;31.60
40738;DHT22;54759;48.094;-1.628;2023-03-02T04:47:57;19.40;31.60
40738;DHT22;54759;48.094;-1.628;2023-03-02T04:50:58;19.30;31.50
40738;DHT22;54759;48.094;-1.628;2023-03-02T04:54:00;19.30;31.60
40738;DHT22;54759;48.094;-1.628;2023-03-02T04:57:02;19.60;31.60
40738;DHT22;54759;48.094;-1.628;2023-03-02T05:00:07;19.50;31.50
40738;DHT22;54759;48.094;-1.628;2023-03-02T05:03:10;19.50;31.60
40738;DHT22;54759;48.094;-1.628;2023-03-02T05:06:11;19.70;31.70
40738;DHT22;54759;48.094;-1.628;2023-03-02T05:09:12;19.40;31.50
40738;DHT22;54759;48.094;-1.628;2023-03-02T05:12:14;19.80;31.80
40738;DHT22;54759;48.094;-1.628;2023-03-02T05:15:18;19.70;31.70
40738;DHT22;54759;48.094;-1.628;2023-03-02T05:18:22;19.50;31.50
40738;DHT22;54759;48.094;-1.628;2023-03-02T05:21:24;19.40;31.40
40738;DHT22;54759;48.094;-1.628;2023-03-02T05:24:25;19.90;31.70
40738;DHT22;54759;48.094;-1.628;2023-03-02T05:27:27;19.40;31.60
40738;DHT22;54759;48.094;-1.628;2023-03-02T05:30:29;19.80;31.70
40738;DHT22;54759;48.094;-1.628;2023-03-02T05:33:32;19.70;31.70
40738;DHT22;54759;48.094;-1.628;2023-03-02T05:36:34;19.40;31.50
40738;DHT22;54759;48.094;-1.628;2023-03-02T05:39:35;19.80;31.70
40738;DHT22;54759;48.094;-1.628;2023-03-02T05:42:37;19.40;31.60
40738;DHT22;54759;48.094;-1.628;2023-03-02T05:45:40;19.80;31.60
40738;DHT22;54759;48.094;-1.628;2023-03-02T05:48:42;19.60;31.70
40738;DHT22;54759;48.094;-1.628;2023-03-02T05:51:51;19.80;31.70
40738;DHT22;54759;48.094;-1.628;2023-03-02T05:54:52;19.70;31.70
40738;DHT22;54759;48.094;-1.628;2023-03-02T05:57:53;19.40;31.60
40738;DHT22;54759;48.094;-1.628;2023-03-02T06:00:55;19.70;31.80
40738;DHT22;54759;48.094;-1.628;2023-03-02T06:03:56;19.60;31.70
40738;DHT22;54759;48.094;-1.628;2023-03-02T06:06:58;19.60;31.70
40738;DHT22;54759;48.094;-1.628;2023-03-02T06:09:59;20.20;31.90
40738;DHT22;54759;48.094;-1.628;2023-03-02T06:13:00;19.90;31.80
40738;DHT22;54759;48.094;-1.628;2023-03-02T06:16:02;19.70;31.70
40738;DHT22;54759;48.094;-1.628;2023-03-02T06:19:04;19.30;31.50
40738;DHT22;54759;48.094;-1.628;2023-03-02T06:22:05;19.30;31.50
40738;DHT22;54759;48.094;-1.628;2023-03-02T06:25:08;19.60;31.70
40738;DHT22;54759;48.094;-1.628;2023-03-02T06:28:10;20.30;31.90
40738;DHT22;54759;48.094;-1.628;2023-03-02T06:31:12;19.80;31.60
40738;DHT22;54759;48.094;-1.628;2023-03-02T06:34:13;19.70;31.70
40738;DHT22;54759;48.094;-1.628;2023-03-02T06:37:15;19.40;31.60
40738;DHT22;54759;48.094;-1.628;2023-03-02T06:40:16;19.80;31.80
40738;DHT22;54759;48.094;-1.628;2023-03-02T06:43:17;19.40;31.40
40738;DHT22;54759;48.094;-1.628;2023-03-02T06:46:20;19.30;31.50
40738;DHT22;54759;48.094;-1.628;2023-03-02T06:49:23;19.70;31.20
40738;DHT22;54759;48.094;-1.628;2023-03-02T06:52:25;19.80;30.00
40738;DHT22;54759;48.094;-1.628;2023-03-02T06:55:29;19.70;31.50
40738;DHT22;54759;48.094;-1.628;2023-03-02T06:58:30;19.90;31.90
40738;DHT22;54759;48.094;-1.628;2023-03-02T07:01:32;19.30;31.50
40738;DHT22;54759;48.094;-1.628;2023-03-02T07:04:35;19.40;31.60
40738;DHT22;54759;48.094;-1.628;2023-03-02T07:07:37;19.60;31.50
40738;DHT22;54759;48.094;-1.628;2023-03-02T07:10:39;19.70;31.80
40738;DHT22;54759;48.094;-1.628;2023-03-02T07:13:40;19.70;31.70
40738;DHT22;54759;48.094;-1.628;2023-03-02T07:16:42;20.00;31.80
40738;DHT22;54759;48.094;-1.628;2023-03-02T07:19:44;19.80;31.50
40738;DHT22;54759;48.094;-1.628;2023-03-02T07:22:45;20.10;31.70
40738;DHT22;54759;48.094;-1.628;2023-03-02T07:25:46;19.90;31.40
40738;DHT22;54759;48.094;-1.628;2023-03-02T07:28:47;20.30;31.70
40738;DHT22;54759;48.094;-1.628;2023-03-02T07:31:49;19.80;31.20
40738;DHT22;54759;48.094;-1.628;2023-03-02T07:34:56;20.20;31.40
40738;DHT22;54759;48.094;-1.628;2023-03-02T07:37:58;19.90;31.10
40738;DHT22;54759;48.094;-1.628;2023-03-02T07:40:59;20.10;31.20
40738;DHT22;54759;48.094;-1.628;2023-03-02T07:44:00;19.80;30.90
40738;DHT22;54759;48.094;-1.628;2023-03-02T07:47:02;20.20;31.10
40738;DHT22;54759;48.094;-1.628;2023-03-02T07:50:04;20.00;30.80
40738;DHT22;54759;48.094;-1.628;2023-03-02T07:53:05;20.40;31.00
40738;DHT22;54759;48.094;-1.628;2023-03-02T07:56:09;20.20;30.90
40738;DHT22;54759;48.094;-1.628;2023-03-02T07:59:11;20.40;30.90
40738;DHT22;54759;48.094;-1.628;2023-03-02T08:02:14;20.00;30.40
40738;DHT22;54759;48.094;-1.628;2023-03-02T08:05:15;20.30;30.80
40738;DHT22;54759;48.094;-1.628;2023-03-02T08:08:17;20.20;30.60
40738;DHT22;54759;48.094;-1.628;2023-03-02T08:11:18;20.10;30.70
40738;DHT22;54759;48.094;-1.628;2023-03-02T08:14:19;20.30;30.60
40738;DHT22;54759;48.094;-1.628;2023-03-02T08:17:21;19.90;30.10
40738;DHT22;54759;48.094;-1.628;2023-03-02T08:20:23;20.10;30.50
40738;DHT22;54759;48.094;-1.628;2023-03-02T08:23:24;20.60;30.70
40738;DHT22;54759;48.094;-1.628;2023-03-02T08:26:26;20.20;30.30
40738;DHT22;54759;48.094;-1.628;2023-03-02T08:29:27;20.60;30.50
40738;DHT22;54759;48.094;-1.628;2023-03-02T08:39:33;20.50;29.30
40738;DHT22;54759;48.094;-1.628;2023-03-02T08:42:35;20.60;29.60
40738;DHT22;54759;48.094;-1.628;2023-03-02T08:45:36;20.50;29.90
40738;DHT22;54759;48.094;-1.628;2023-03-02T08:48:41;20.70;30.00
40738;DHT22;54759;48.094;-1.628;2023-03-02T08:51:43;20.30;30.00
40738;DHT22;54759;48.094;-1.628;2023-03-02T08:54:49;20.40;30.00
40738;DHT22;54759;48.094;-1.628;2023-03-02T08:57:51;20.50;30.30
40738;DHT22;54759;48.094;-1.628;2023-03-02T09:00:57;20.60;30.20
40738;DHT22;54759;48.094;-1.628;2023-03-02T09:03:58;20.80;30.30
40738;DHT22;54759;48.094;-1.628;2023-03-02T09:07:00;20.60;30.20
40738;DHT22;54759;48.094;-1.628;2023-03-02T09:10:03;20.50;30.00
40738;DHT22;54759;48.094;-1.628;2023-03-02T09:13:08;20.60;30.00
40738;DHT22;54759;48.094;-1.628;2023-03-02T09:16:11;20.90;30.00
40738;DHT22;54759;48.094;-1.628;2023-03-02T09:19:13;20.80;30.10
40738;DHT22;54759;48.094;-1.628;2023-03-02T09:22:17;20.90;30.10
40738;DHT22;54759;48.094;-1.628;2023-03-02T09:25:20;20.70;30.00
40738;DHT22;54759;48.094;-1.628;2023-03-02T09:28:21;20.70;30.00
40738;DHT22;54759;48.094;-1.628;2023-03-02T09:33:20;20.90;30.00
40738;DHT22;54759;48.094;-1.628;2023-03-02T09:36:23;21.50;30.40
40738;DHT22;54759;48.094;-1.628;2023-03-02T09:39:25;21.00;30.20
40738;DHT22;54759;48.094;-1.628;2023-03-02T09:42:28;20.90;30.20
40738;DHT22;54759;48.094;-1.628;2023-03-02T09:45:51;20.90;30.00
40738;DHT22;54759;48.094;-1.628;2023-03-02T09:49:06;20.80;30.00
40738;DHT22;54759;48.094;-1.628;2023-03-02T09:52:29;21.10;30.00
40738;DHT22;54759;48.094;-1.628;2023-03-02T09:55:34;21.60;30.30
40738;DHT22;54759;48.094;-1.628;2023-03-02T09:58:37;21.10;30.00
40738;DHT22;54759;48.094;-1.628;2023-03-02T10:01:42;21.10;30.00
40738;DHT22;54759;48.094;-1.628;2023-03-02T10:04:49;20.90;29.90
40738;DHT22;54759;48.094;-1.628;2023-03-02T10:07:53;21.00;29.90
40738;DHT22;54759;48.094;-1.628;2023-03-02T10:11:00;21.00;29.90
40738;DHT22;54759;48.094;-1.628;2023-03-02T10:14:09;20.90;29.90
40738;DHT22;54759;48.094;-1.628;2023-03-02T10:17:27;21.00;29.90
40738;DHT22;54759;48.094;-1.628;2023-03-02T10:20:41;21.20;30.00
40738;DHT22;54759;48.094;-1.628;2023-03-02T10:23:47;21.20;30.00
40738;DHT22;54759;48.094;-1.628;2023-03-02T10:26:52;21.20;29.90
40738;DHT22;54759;48.094;-1.628;2023-03-02T10:29:59;21.20;29.90
40738;DHT22;54759;48.094;-1.628;2023-03-02T10:33:03;21.30;29.90
40738;DHT22;54759;48.094;-1.628;2023-03-02T10:36:19;21.10;29.80
40738;DHT22;54759;48.094;-1.628;2023-03-02T10:39:21;21.30;29.80
40738;DHT22;54759;48.094;-1.628;2023-03-02T10:42:24;21.10;29.70
40738;DHT22;54759;48.094;-1.628;2023-03-02T10:45:31;21.40;29.80
40738;DHT22;54759;48.094;-1.628;2023-03-02T10:48:43;21.10;29.70
40738;DHT22;54759;48.094;-1.628;2023-03-02T10:51:56;21.20;29.70
40738;DHT22;54759;48.094;-1.628;2023-03-02T10:55:02;21.30;29.70
40738;DHT22;54759;48.094;-1.628;2023-03-02T10:58:06;21.20;29.60
40738;DHT22;54759;48.094;-1.628;2023-03-02T11:01:15;21.40;29.60
40738;DHT22;54759;48.094;-1.628;2023-03-02T11:04:22;21.10;29.40
40738;DHT22;54759;48.094;-1.628;2023-03-02T11:07:26;21.30;29.40
40738;DHT22;54759;48.094;-1.628;2023-03-02T11:10:30;21.20;29.30
40738;DHT22;54759;48.094;-1.628;2023-03-02T11:13:38;21.20;29.30
40738;DHT22;54759;48.094;-1.628;2023-03-02T11:16:39;21.30;29.30
40738;DHT22;54759;48.094;-1.628;2023-03-02T11:19:43;21.40;29.40
40738;DHT22;54759;48.094;-1.628;2023-03-02T11:22:51;21.40;29.30
40738;DHT22;54759;48.094;-1.628;2023-03-02T11:25:58;21.40;29.20
40738;DHT22;54759;48.094;-1.628;2023-03-02T11:29:03;21.40;29.20
40738;DHT22;54759;48.094;-1.628;2023-03-02T11:32:12;21.30;29.10
40738;DHT22;54759;48.094;-1.628;2023-03-02T11:35:23;21.30;29.00
40738;DHT22;54759;48.094;-1.628;2023-03-02T11:38:33;21.20;28.90
40738;DHT22;54759;48.094;-1.628;2023-03-02T11:41:37;21.40;29.00
40738;DHT22;54759;48.094;-1.628;2023-03-02T11:44:46;21.20;28.80
40738;DHT22;54759;48.094;-1.628;2023-03-02T11:47:51;21.00;28.70
40738;DHT22;54759;48.094;-1.628;2023-03-02T11:51:05;21.20;28.80
40738;DHT22;54759;48.094;-1.628;2023-03-02T11:54:35;21.30;28.90
40738;DHT22;54759;48.094;-1.628;2023-03-02T11:57:41;22.00;29.10
40738;DHT22;54759;48.094;-1.628;2023-03-02T12:00:48;21.20;28.80
40738;DHT22;54759;48.094;-1.628;2023-03-02T12:03:51;21.40;28.90
40738;DHT22;54759;48.094;-1.628;2023-03-02T12:06:53;21.40;28.90
40738;DHT22;54759;48.094;-1.628;2023-03-02T12:09:58;21.20;28.90
40738;DHT22;54759;48.094;-1.628;2023-03-02T12:13:12;21.40;29.00
40738;DHT22;54759;48.094;-1.628;2023-03-02T12:16:19;21.20;28.90
40738;DHT22;54759;48.094;-1.628;2023-03-02T12:19:26;21.40;29.00
40738;DHT22;54759;48.094;-1.628;2023-03-02T12:22:29;21.30;29.00
40738;DHT22;54759;48.094;-1.628;2023-03-02T12:25:41;21.40;29.10
40738;DHT22;54759;48.094;-1.628;2023-03-02T12:28:57;21.60;29.20
40738;DHT22;54759;48.094;-1.628;2023-03-02T12:32:10;21.60;29.30
40738;DHT22;54759;48.094;-1.628;2023-03-02T12:35:17;21.20;29.20
40738;DHT22;54759;48.094;-1.628;2023-03-02T12:38:26;21.30;29.30
40738;DHT22;54759;48.094;-1.628;2023-03-02T12:41:42;21.50;29.40
40738;DHT22;54759;48.094;-1.628;2023-03-02T12:44:51;21.40;29.50
40738;DHT22;54759;48.094;-1.628;2023-03-02T12:48:01;21.50;29.50
40738;DHT22;54759;48.094;-1.628;2023-03-02T12:51:05;21.10;29.40
40738;DHT22;54759;48.094;-1.628;2023-03-02T12:54:14;21.50;29.60
40738;DHT22;54759;48.094;-1.628;2023-03-02T12:57:18;21.50;29.60
40738;DHT22;54759;48.094;-1.628;2023-03-02T13:00:23;21.30;29.60
40738;DHT22;54759;48.094;-1.628;2023-03-02T13:03:29;21.50;29.70
40738;DHT22;54759;48.094;-1.628;2023-03-02T13:06:31;21.70;29.80
40738;DHT22;54759;48.094;-1.628;2023-03-02T13:09:37;21.50;29.70
40738;DHT22;54759;48.094;-1.628;2023-03-02T13:12:49;21.50;29.70
40738;DHT22;54759;48.094;-1.628;2023-03-02T13:15:54;21.50;29.60
40738;DHT22;54759;48.094;-1.628;2023-03-02T13:18:57;21.60;29.70
40738;DHT22;54759;48.094;-1.628;2023-03-02T13:21:59;21.60;29.70
40738;DHT22;54759;48.094;-1.628;2023-03-02T13:25:03;21.90;29.70
40738;DHT22;54759;48.094;-1.628;2023-03-02T13:28:22;21.50;29.60
40738;DHT22;54759;48.094;-1.628;2023-03-02T13:31:24;21.60;29.60
40738;DHT22;54759;48.094;-1.628;2023-03-02T13:34:27;21.60;29.60
40738;DHT22;54759;48.094;-1.628;2023-03-02T13:37:34;21.40;29.50
40738;DHT22;54759;48.094;-1.628;2023-03-02T13:40:41;21.60;29.50
40738;DHT22;54759;48.094;-1.628;2023-03-02T13:55:44;21.60;29.40
40738;DHT22;54759;48.094;-1.628;2023-03-02T13:58:46;21.60;29.40
40738;DHT22;54759;48.094;-1.628;2023-03-02T14:01:51;21.60;29.40
40738;DHT22;54759;48.094;-1.628;2023-03-02T14:05:02;21.50;29.40
40738;DHT22;54759;48.094;-1.628;2023-03-02T14:08:04;21.70;29.50
40738;DHT22;54759;48.094;-1.628;2023-03-02T14:11:09;21.70;29.50
40738;DHT22;54759;48.094;-1.628;2023-03-02T14:14:13;21.70;29.50
40738;DHT22;54759;48.094;-1.628;2023-03-02T14:17:21;21.70;29.40
40738;DHT22;54759;48.094;-1.628;2023-03-02T14:20:23;21.70;29.40
40738;DHT22;54759;48.094;-1.628;2023-03-02T14:23:26;21.70;29.40
40738;DHT22;54759;48.094;-1.628;2023-03-02T14:26:31;21.70;29.40
40738;DHT22;54759;48.094;-1.628;2023-03-02T14:29:35;21.60;29.30
40738;DHT22;54759;48.094;-1.628;2023-03-02T14:32:37;21.70;29.30
40738;DHT22;54759;48.094;-1.628;2023-03-02T14:35:39;21.80;29.30
40738;DHT22;54759;48.094;-1.628;2023-03-02T14:38:46;21.80;29.30
40738;DHT22;54759;48.094;-1.628;2023-03-02T14:41:48;21.80;29.40
40738;DHT22;54759;48.094;-1.628;2023-03-02T14:44:55;21.90;29.50
40738;DHT22;54759;48.094;-1.628;2023-03-02T14:48:00;21.70;29.40
40738;DHT22;54759;48.094;-1.628;2023-03-02T14:51:03;21.70;29.40
40738;DHT22;54759;48.094;-1.628;2023-03-02T14:54:07;21.50;29.30
40738;DHT22;54759;48.094;-1.628;2023-03-02T14:57:16;21.70;29.40
40738;DHT22;54759;48.094;-1.628;2023-03-02T15:00:18;21.60;29.50
40738;DHT22;54759;48.094;-1.628;2023-03-02T15:03:19;21.80;29.60
40738;DHT22;54759;48.094;-1.628;2023-03-02T15:06:27;21.70;29.70
40738;DHT22;54759;48.094;-1.628;2023-03-02T15:09:29;21.50;29.70
40738;DHT22;54759;48.094;-1.628;2023-03-02T15:12:30;21.70;29.80
40738;DHT22;54759;48.094;-1.628;2023-03-02T15:15:32;21.80;29.90
40738;DHT22;54759;48.094;-1.628;2023-03-02T15:18:33;21.80;29.90
40738;DHT22;54759;48.094;-1.628;2023-03-02T15:21:36;21.60;29.90
40738;DHT22;54759;48.094;-1.628;2023-03-02T15:24:47;21.80;30.00
40738;DHT22;54759;48.094;-1.628;2023-03-02T15:27:48;22.00;30.10
40738;DHT22;54759;48.094;-1.628;2023-03-02T15:30:53;21.70;30.00
40738;DHT22;54759;48.094;-1.628;2023-03-02T15:33:58;21.60;30.00
40738;DHT22;54759;48.094;-1.628;2023-03-02T15:37:00;21.80;30.10
40738;DHT22;54759;48.094;-1.628;2023-03-02T15:40:02;21.60;30.10
40738;DHT22;54759;48.094;-1.628;2023-03-02T15:43:03;21.80;30.20
40738;DHT22;54759;48.094;-1.628;2023-03-02T15:46:05;21.80;30.30
40738;DHT22;54759;48.094;-1.628;2023-03-02T15:49:06;21.90;30.30
40738;DHT22;54759;48.094;-1.628;2023-03-02T15:52:09;21.90;30.20
40738;DHT22;54759;48.094;-1.628;2023-03-02T15:55:11;21.90;30.20
40738;DHT22;54759;48.094;-1.628;2023-03-02T15:58:15;21.90;30.30
40738;DHT22;54759;48.094;-1.628;2023-03-02T16:01:17;22.00;30.30
40738;DHT22;54759;48.094;-1.628;2023-03-02T16:04:19;21.90;30.30
40738;DHT22;54759;48.094;-1.628;2023-03-02T16:07:21;21.80;30.30
40738;DHT22;54759;48.094;-1.628;2023-03-02T16:10:22;22.00;30.40
40738;DHT22;54759;48.094;-1.628;2023-03-02T16:13:26;22.00;30.40
40738;DHT22;54759;48.094;-1.628;2023-03-02T16:16:35;21.90;30.40
40738;DHT22;54759;48.094;-1.628;2023-03-02T16:19:36;22.00;30.50
40738;DHT22;54759;48.094;-1.628;2023-03-02T16:22:41;22.10;30.60
40738;DHT22;54759;48.094;-1.628;2023-03-02T16:25:43;22.00;30.60
40738;DHT22;54759;48.094;-1.628;2023-03-02T16:28:47;21.90;31.20
40738;DHT22;54759;48.094;-1.628;2023-03-02T16:31:49;21.90;30.50
40738;DHT22;54759;48.094;-1.628;2023-03-02T16:34:54;22.10;31.30
40738;DHT22;54759;48.094;-1.628;2023-03-02T16:37:56;22.20;30.70
40738;DHT22;54759;48.094;-1.628;2023-03-02T16:40:58;21.90;30.60
40738;DHT22;54759;48.094;-1.628;2023-03-02T16:44:00;22.10;30.70
40738;DHT22;54759;48.094;-1.628;2023-03-02T16:47:02;22.20;30.70
40738;DHT22;54759;48.094;-1.628;2023-03-02T16:50:04;22.10;30.70
40738;DHT22;54759;48.094;-1.628;2023-03-02T16:53:06;22.10;30.70
40738;DHT22;54759;48.094;-1.628;2023-03-02T16:56:09;22.00;30.70
40738;DHT22;54759;48.094;-1.628;2023-03-02T16:59:12;22.20;30.80
40738;DHT22;54759;48.094;-1.628;2023-03-02T17:02:13;22.10;30.70
40738;DHT22;54759;48.094;-1.628;2023-03-02T17:05:17;22.30;30.90
40738;DHT22;54759;48.094;-1.628;2023-03-02T17:08:20;22.20;30.80
40738;DHT22;54759;48.094;-1.628;2023-03-02T17:11:21;22.20;30.80
40738;DHT22;54759;48.094;-1.628;2023-03-02T17:14:23;22.20;30.80
40738;DHT22;54759;48.094;-1.628;2023-03-02T17:17:25;22.10;30.80
40738;DHT22;54759;48.094;-1.628;2023-03-02T17:20:26;22.30;31.00
40738;DHT22;54759;48.094;-1.628;2023-03-02T17:23:30;22.20;30.90
40738;DHT22;54759;48.094;-1.628;2023-03-02T17:26:31;22.20;30.90
40738;DHT22;54759;48.094;-1.628;2023-03-02T17:29:32;22.00;30.90
40738;DHT22;54759;48.094;-1.628;2023-03-02T17:32:34;22.20;31.10
40738;DHT22;54759;48.094;-1.628;2023-03-02T17:35:37;22.10;30.90
40738;DHT22;54759;48.094;-1.628;2023-03-02T17:38:39;22.20;31.10
40738;DHT22;54759;48.094;-1.628;2023-03-02T17:41:41;22.30;31.10
40738;DHT22;54759;48.094;-1.628;2023-03-02T17:44:42;22.10;31.00
40738;DHT22;54759;48.094;-1.628;2023-03-02T17:47:44;22.30;31.10
40738;DHT22;54759;48.094;-1.628;2023-03-02T17:50:49;22.20;31.00
40738;DHT22;54759;48.094;-1.628;2023-03-02T17:53:51;22.20;31.10
40738;DHT22;54759;48.094;-1.628;2023-03-02T17:56:53;22.10;31.00
40738;DHT22;54759;48.094;-1.628;2023-03-02T17:59:54;22.00;31.00
40738;DHT22;54759;48.094;-1.628;2023-03-02T18:02:57;22.10;31.00
40738;DHT22;54759;48.094;-1.628;2023-03-02T18:05:59;22.20;31.10
40738;DHT22;54759;48.094;-1.628;2023-03-02T18:09:00;22.00;31.00
40738;DHT22;54759;48.094;-1.628;2023-03-02T18:12:02;21.90;31.00
40738;DHT22;54759;48.094;-1.628;2023-03-02T18:15:05;22.10;31.10
40738;DHT22;54759;48.094;-1.628;2023-03-02T18:18:07;22.10;31.10
40738;DHT22;54759;48.094;-1.628;2023-03-02T18:21:08;21.90;31.10
40738;DHT22;54759;48.094;-1.628;2023-03-02T18:24:10;22.20;31.30
40738;DHT22;54759;48.094;-1.628;2023-03-02T18:27:12;21.90;31.10
40738;DHT22;54759;48.094;-1.628;2023-03-02T18:30:13;22.00;31.10
40738;DHT22;54759;48.094;-1.628;2023-03-02T18:33:15;22.00;31.20
40738;DHT22;54759;48.094;-1.628;2023-03-02T18:36:17;21.70;31.00
40738;DHT22;54759;48.094;-1.628;2023-03-02T18:39:19;22.10;31.20
40738;DHT22;54759;48.094;-1.628;2023-03-02T18:42:20;22.00;31.10
40738;DHT22;54759;48.094;-1.628;2023-03-02T18:45:24;21.80;31.00
40738;DHT22;54759;48.094;-1.628;2023-03-02T18:48:30;21.70;30.90
40738;DHT22;54759;48.094;-1.628;2023-03-02T18:51:31;21.90;31.00
40738;DHT22;54759;48.094;-1.628;2023-03-02T18:54:33;21.70;30.90
40738;DHT22;54759;48.094;-1.628;2023-03-02T18:57:35;21.80;31.00
40738;DHT22;54759;48.094;-1.628;2023-03-02T19:00:38;21.60;30.80
40738;DHT22;54759;48.094;-1.628;2023-03-02T19:03:39;21.80;30.90
40738;DHT22;54759;48.094;-1.628;2023-03-02T19:06:42;21.70;30.90
40738;DHT22;54759;48.094;-1.628;2023-03-02T19:09:44;21.50;30.80
40738;DHT22;54759;48.094;-1.628;2023-03-02T19:12:45;21.70;30.90
40738;DHT22;54759;48.094;-1.628;2023-03-02T19:15:47;21.80;31.00
40738;DHT22;54759;48.094;-1.628;2023-03-02T19:18:49;21.70;30.90
40738;DHT22;54759;48.094;-1.628;2023-03-02T19:21:50;21.70;30.90
40738;DHT22;54759;48.094;-1.628;2023-03-02T19:24:53;21.70;31.00
40738;DHT22;54759;48.094;-1.628;2023-03-02T19:27:55;21.80;31.10
40738;DHT22;54759;48.094;-1.628;2023-03-02T19:30:56;21.50;30.90